createdAt,value
2018-09-18T00:01:06.930Z,67.43
2018-09-18T00:03:35.354Z,67.33
2018-09-18T00:06:03.730Z,66.93
2018-09-18T00:08:32.134Z,66.97
2018-09-18T00:11:00.505Z,67.52
2018-09-18T00:13:28.898Z,67.69
2018-09-18T00:15:57.269Z,66.98
2018-09-18T00:18:25.661Z,67.12
2018-09-18T00:20:54.030Z,67.55
2018-09-18T00:23:22.417Z,67.21
2018-09-18T00:25:50.809Z,67.80
2018-09-18T00:28:19.206Z,67.03
2018-09-18T00:30:47.578Z,67.42
2018-09-18T00:33:15.978Z,67.80
2018-09-18T00:35:44.350Z,67.23
2018-09-18T00:38:12.739Z,66.94
2018-09-18T00:40:41.118Z,66.80
2018-09-18T00:43:09.522Z,67.17
2018-09-18T00:45:37.906Z,67.17
2018-09-18T00:48:06.327Z,66.38
2018-09-18T00:50:34.694Z,66.98
2018-09-18T00:53:03.094Z,67.01
2018-09-18T00:55:31.474Z,67.17
2018-09-18T00:57:59.866Z,67.12
2018-09-18T01:00:28.246Z,67.30
2018-09-18T01:02:56.642Z,67.55
2018-09-18T01:05:25.031Z,66.65
2018-09-18T01:07:53.426Z,67.36
2018-09-18T01:10:21.819Z,67.63
2018-09-18T01:12:50.444Z,67.55
2018-09-18T01:15:18.962Z,67.78
2018-09-18T01:17:47.370Z,68.06
2018-09-18T01:20:15.757Z,68.30
2018-09-18T01:22:44.269Z,67.67
2018-09-18T01:25:12.714Z,68.84
2018-09-18T01:27:41.085Z,68.26
2018-09-18T01:30:09.490Z,68.41
2018-09-18T01:32:37.857Z,68.86
2018-09-18T01:35:06.356Z,69.36
2018-09-18T01:37:34.724Z,68.74
2018-09-18T01:40:03.128Z,69.54
2018-09-18T01:42:31.517Z,69.67
2018-09-18T01:44:59.914Z,69.60
2018-09-18T01:47:28.278Z,69.88
2018-09-18T01:49:56.674Z,69.23
2018-09-18T01:52:25.130Z,69.45
2018-09-18T01:54:53.521Z,70.05
2018-09-18T01:57:21.901Z,69.55
2018-09-18T01:59:51.217Z,69.99
2018-09-18T02:02:19.774Z,69.72
2018-09-18T02:04:48.383Z,70.70
2018-09-18T02:07:16.749Z,70.67
2018-09-18T02:09:45.142Z,70.55
2018-09-18T02:12:13.522Z,70.87
2018-09-18T02:14:41.911Z,70.18
2018-09-18T02:17:10.302Z,70.83
2018-09-18T02:19:38.694Z,71.00
2018-09-18T02:22:07.072Z,70.25
2018-09-18T02:24:35.482Z,70.60
2018-09-18T02:27:03.856Z,70.81
2018-09-18T02:29:32.241Z,71.18
2018-09-18T02:32:00.606Z,70.88
2018-09-18T02:34:28.992Z,71.08
2018-09-18T02:36:57.359Z,70.59
2018-09-18T02:39:25.756Z,70.44
2018-09-18T02:41:54.114Z,71.52
2018-09-18T02:44:22.502Z,70.52
2018-09-18T02:46:50.891Z,70.59
2018-09-18T02:49:19.425Z,70.79
2018-09-18T02:51:47.821Z,70.88
2018-09-18T02:54:16.213Z,71.31
2018-09-18T02:56:44.569Z,71.47
2018-09-18T02:59:12.955Z,70.80
2018-09-18T03:01:41.322Z,70.82
2018-09-18T03:04:09.893Z,71.29
2018-09-18T03:06:38.255Z,71.12
2018-09-18T03:09:08.629Z,71.07
2018-09-18T03:11:36.990Z,70.56
2018-09-18T03:14:05.433Z,71.31
2018-09-18T03:16:33.846Z,70.89
2018-09-18T03:19:02.218Z,71.26
2018-09-18T03:21:30.611Z,70.50
2018-09-18T03:23:59.015Z,71.17
2018-09-18T03:26:27.439Z,71.27
2018-09-18T03:28:55.805Z,70.53
2018-09-18T03:31:24.198Z,71.07
2018-09-18T03:33:52.571Z,71.40
2018-09-18T03:36:20.966Z,71.30
2018-09-18T03:38:49.340Z,70.80
2018-09-18T03:41:17.730Z,70.82
2018-09-18T03:43:46.118Z,71.45
2018-09-18T03:46:14.505Z,71.00
2018-09-18T03:48:42.874Z,71.63
2018-09-18T03:51:11.268Z,71.22
2018-09-18T03:53:39.701Z,71.73
2018-09-18T03:56:08.218Z,71.21
2018-09-18T03:58:36.585Z,71.24
2018-09-18T04:01:04.978Z,71.29
2018-09-18T04:03:33.338Z,71.53
2018-09-18T04:06:01.728Z,71.60
2018-09-18T04:08:30.102Z,71.94
2018-09-18T04:10:58.514Z,72.60
2018-09-18T04:13:26.882Z,72.48
2018-09-18T04:15:55.278Z,72.48
2018-09-18T04:18:25.470Z,72.33
2018-09-18T04:20:53.861Z,71.76
2018-09-18T04:23:22.234Z,71.76
2018-09-18T04:25:50.669Z,71.73
2018-09-18T04:28:19.046Z,71.81
2018-09-18T04:30:47.681Z,71.75
2018-09-18T04:33:16.098Z,72.78
2018-09-18T04:35:44.504Z,72.11
2018-09-18T04:38:12.889Z,71.97
2018-09-18T04:40:41.285Z,71.91
2018-09-18T04:43:09.671Z,72.47
2018-09-18T04:45:38.073Z,72.64
2018-09-18T04:48:06.451Z,71.92
2018-09-18T04:50:34.851Z,72.44
2018-09-18T04:53:03.234Z,72.58
2018-09-18T04:55:31.628Z,72.07
2018-09-18T04:58:00.015Z,72.49
2018-09-18T05:00:28.422Z,71.64
2018-09-18T05:02:56.798Z,72.63
2018-09-18T05:05:25.194Z,71.94
2018-09-18T05:07:53.569Z,71.47
2018-09-18T05:10:21.962Z,72.25
2018-09-18T05:12:50.336Z,72.08
2018-09-18T05:15:18.711Z,71.95
2018-09-18T05:17:47.116Z,71.39
2018-09-18T05:20:15.486Z,71.16
2018-09-18T05:22:43.903Z,71.32
2018-09-18T05:25:12.285Z,71.87
2018-09-18T05:27:40.685Z,71.54
2018-09-18T05:30:09.050Z,70.82
2018-09-18T05:32:37.434Z,71.47
2018-09-18T05:35:05.822Z,71.59
2018-09-18T05:37:34.213Z,71.19
2018-09-18T05:40:02.573Z,70.51
2018-09-18T05:42:30.962Z,71.73
2018-09-18T05:44:59.332Z,71.31
2018-09-18T05:47:27.721Z,71.52
2018-09-18T05:49:56.096Z,71.12
2018-09-18T05:52:24.486Z,70.88
2018-09-18T05:54:52.850Z,70.21
2018-09-18T05:57:21.233Z,70.45
2018-09-18T05:59:49.614Z,70.38
2018-09-18T06:02:18.217Z,70.29
2018-09-18T06:04:46.544Z,70.55
2018-09-18T06:07:14.951Z,70.43
2018-09-18T06:09:43.322Z,70.67
2018-09-18T06:12:11.718Z,69.98
2018-09-18T06:14:40.086Z,70.24
2018-09-18T06:17:08.503Z,70.59
2018-09-18T06:19:36.866Z,69.85
2018-09-18T06:22:05.258Z,69.56
2018-09-18T06:24:33.662Z,69.63
2018-09-18T06:27:02.058Z,69.90
2018-09-18T06:29:30.426Z,68.98
2018-09-18T06:31:59.834Z,69.42
2018-09-18T06:34:28.201Z,69.14
2018-09-18T06:36:56.631Z,68.98
2018-09-18T06:39:24.997Z,68.80
2018-09-18T06:41:53.395Z,68.07
2018-09-18T06:44:21.765Z,67.81
2018-09-18T06:46:50.157Z,68.31
2018-09-18T06:49:18.534Z,67.72
2018-09-18T06:51:47.055Z,67.39
2018-09-18T06:54:15.425Z,66.77
2018-09-18T06:56:43.823Z,67.47
2018-09-18T06:59:12.191Z,67.01
2018-09-18T07:01:40.579Z,66.99
2018-09-18T07:04:08.946Z,66.92
2018-09-18T07:06:37.334Z,66.82
2018-09-18T07:09:07.251Z,65.76
2018-09-18T07:11:35.709Z,65.27
2018-09-18T07:14:04.082Z,65.78
2018-09-18T07:16:32.454Z,64.50
2018-09-18T07:19:00.881Z,64.45
2018-09-18T07:21:29.258Z,64.55
2018-09-18T07:23:57.674Z,63.43
2018-09-18T07:26:26.057Z,62.85
2018-09-18T07:28:54.453Z,63.24
2018-09-18T07:31:22.818Z,62.79
2018-09-18T07:33:51.246Z,62.00
2018-09-18T07:36:19.590Z,62.31
2018-09-18T07:38:47.978Z,62.09
2018-09-18T07:41:16.340Z,61.46
2018-09-18T07:43:44.728Z,61.42
2018-09-18T07:46:13.089Z,61.23
2018-09-18T07:48:41.469Z,60.67
2018-09-18T07:51:10.598Z,59.96
2018-09-18T07:53:39.202Z,60.52
2018-09-18T07:56:07.674Z,59.88
2018-09-18T07:58:36.066Z,59.23
2018-09-18T08:01:04.433Z,59.46
2018-09-18T08:03:32.831Z,59.03
2018-09-18T08:06:01.202Z,57.87
2018-09-18T08:08:29.582Z,57.96
2018-09-18T08:10:57.983Z,56.76
2018-09-18T08:13:26.371Z,56.25
2018-09-18T08:15:54.734Z,56.67
2018-09-18T08:18:23.143Z,55.34
2018-09-18T08:20:51.511Z,55.95
2018-09-18T08:23:19.893Z,55.11
2018-09-18T08:25:48.330Z,54.47
2018-09-18T08:28:16.697Z,54.08
2018-09-18T08:30:45.063Z,53.44
2018-09-18T08:33:13.458Z,53.91
2018-09-18T08:35:41.831Z,54.23
2018-09-18T08:38:10.222Z,53.63
2018-09-18T08:40:38.593Z,52.67
2018-09-18T08:43:06.994Z,53.19
2018-09-18T08:45:35.426Z,51.58
2018-09-18T08:48:03.829Z,51.40
2018-09-18T08:50:32.192Z,50.78
2018-09-18T08:53:00.590Z,51.25
2018-09-18T08:55:28.999Z,51.00
2018-09-18T08:57:57.371Z,50.16
2018-09-18T09:00:25.754Z,49.92
2018-09-18T09:02:54.404Z,49.99
2018-09-18T09:05:22.845Z,49.09
2018-09-18T09:07:51.355Z,49.50
2018-09-18T09:10:19.674Z,48.97
2018-09-18T09:12:48.082Z,47.62
2018-09-18T09:15:16.473Z,47.88
2018-09-18T09:17:44.843Z,47.54
2018-09-18T09:20:13.248Z,46.70
2018-09-18T09:22:41.750Z,47.36
2018-09-18T09:25:10.107Z,46.97
2018-09-18T09:27:38.910Z,45.80
2018-09-18T09:30:07.319Z,46.07
2018-09-18T09:32:35.672Z,45.75
2018-09-18T09:35:04.111Z,45.37
2018-09-18T09:37:32.542Z,44.58
2018-09-18T09:40:00.942Z,45.15
2018-09-18T09:42:29.344Z,44.06
2018-09-18T09:44:57.735Z,43.86
2018-09-18T09:47:26.146Z,43.56
2018-09-18T09:49:54.522Z,43.84
2018-09-18T09:52:22.918Z,43.59
2018-09-18T09:54:51.285Z,42.39
2018-09-18T09:57:19.675Z,42.61
2018-09-18T09:59:48.052Z,41.84
2018-09-18T10:02:22.614Z,41.75
2018-09-18T10:04:50.983Z,42.09
2018-09-18T10:07:19.369Z,43.00
2018-09-18T10:09:47.743Z,42.08
2018-09-18T10:12:16.143Z,41.28
2018-09-18T10:14:44.528Z,41.81
2018-09-18T10:17:12.934Z,40.25
2018-09-18T10:19:41.303Z,39.13
2018-09-18T10:22:09.689Z,38.05
2018-09-18T10:24:38.077Z,37.61
2018-09-18T10:27:08.047Z,37.30
2018-09-18T10:29:36.340Z,35.37
2018-09-18T10:32:04.711Z,34.03
2018-09-18T10:34:33.130Z,34.64
2018-09-18T10:37:01.519Z,34.29
2018-09-18T10:39:29.959Z,34.19
2018-09-18T10:41:58.408Z,33.54
2018-09-18T10:44:26.749Z,34.42
2018-09-18T10:46:55.152Z,33.61
2018-09-18T10:49:23.587Z,33.63
2018-09-18T10:51:52.317Z,33.35
2018-09-18T10:54:20.701Z,32.29
2018-09-18T10:56:49.082Z,31.71
2018-09-18T10:59:17.474Z,31.61
2018-09-18T11:01:45.980Z,31.27
2018-09-18T11:04:14.366Z,31.32
2018-09-18T11:06:43.315Z,31.44
2018-09-18T11:09:12.056Z,31.34
2018-09-18T11:11:41.311Z,31.12
2018-09-18T11:14:11.031Z,31.29
2018-09-18T11:16:39.512Z,31.30
2018-09-18T11:19:08.134Z,30.72
2018-09-18T11:21:36.601Z,31.16
2018-09-18T11:24:05.396Z,30.51
2018-09-18T11:26:34.050Z,31.52
2018-09-18T11:29:02.434Z,31.75
2018-09-18T11:31:30.950Z,31.29
2018-09-18T11:33:59.300Z,31.46
2018-09-18T11:36:28.590Z,31.28
2018-09-18T11:38:57.690Z,30.41
2018-09-18T11:41:26.597Z,31.51
2018-09-18T11:43:54.963Z,31.62
2018-09-18T11:46:23.367Z,31.28
2018-09-18T11:48:51.776Z,31.53
2018-09-18T11:51:20.596Z,30.93
2018-09-18T11:53:48.922Z,30.96
2018-09-18T11:56:17.319Z,31.31
2018-09-18T11:58:45.685Z,31.00
2018-09-18T12:01:14.069Z,30.36
2018-09-18T12:03:42.439Z,30.74
2018-09-18T12:06:10.831Z,30.70
2018-09-18T12:08:39.283Z,31.26
2018-09-18T12:11:07.675Z,30.59
2018-09-18T12:13:36.045Z,30.76
2018-09-18T12:16:04.447Z,31.12
2018-09-18T12:18:32.815Z,31.48
2018-09-18T12:21:01.227Z,31.81
2018-09-18T12:23:29.690Z,31.86
2018-09-18T12:25:58.106Z,31.92
2018-09-18T12:28:26.494Z,31.59
2018-09-18T12:30:54.899Z,31.01
2018-09-18T12:33:23.267Z,31.31
2018-09-18T12:35:51.720Z,31.06
2018-09-18T12:38:20.043Z,32.02
2018-09-18T12:40:48.487Z,31.49
2018-09-18T12:43:16.850Z,32.55
2018-09-18T12:45:45.234Z,31.56
2018-09-18T12:48:13.602Z,32.50
2018-09-18T12:50:42.002Z,31.80
2018-09-18T12:53:10.387Z,32.70
2018-09-18T12:55:38.782Z,32.67
2018-09-18T12:58:07.199Z,31.30
2018-09-18T13:00:35.558Z,31.04
2018-09-18T13:03:03.939Z,30.88
2018-09-18T13:05:32.328Z,31.00
2018-09-18T13:08:00.765Z,31.64
2018-09-18T13:10:29.136Z,31.96
2018-09-18T13:12:57.506Z,31.45
2018-09-18T13:15:25.920Z,31.48
2018-09-18T13:17:54.300Z,31.15
2018-09-18T13:20:22.667Z,30.72
2018-09-18T13:22:51.078Z,30.46
2018-09-18T13:25:19.470Z,29.65
2018-09-18T13:27:47.890Z,28.55
2018-09-18T13:30:16.254Z,27.96
2018-09-18T13:32:44.719Z,26.83
2018-09-18T13:35:13.135Z,27.90
2018-09-18T13:37:42.420Z,27.71
2018-09-18T13:40:10.790Z,28.27
2018-09-18T13:42:39.182Z,27.31
2018-09-18T13:45:07.566Z,28.04
2018-09-18T13:47:35.983Z,28.49
2018-09-18T13:50:04.351Z,27.43
2018-09-18T13:52:32.776Z,27.96
2018-09-18T13:55:01.202Z,28.25
2018-09-18T13:57:29.652Z,27.79
2018-09-18T13:59:58.011Z,28.26
2018-09-18T14:02:26.673Z,28.23
2018-09-18T14:04:56.741Z,28.32
2018-09-18T14:07:25.096Z,27.25
2018-09-18T14:09:53.476Z,26.96
2018-09-18T14:12:21.874Z,27.90
2018-09-18T14:14:50.281Z,27.37
2018-09-18T14:17:18.687Z,27.12
2018-09-18T14:19:47.162Z,28.00
2018-09-18T14:22:15.585Z,28.11
2018-09-18T14:24:43.991Z,27.85
2018-09-18T14:27:12.381Z,27.67
2018-09-18T14:29:40.780Z,27.51
2018-09-18T14:32:09.253Z,27.41
2018-09-18T14:34:37.618Z,27.74
2018-09-18T14:37:06.177Z,28.76
2018-09-18T14:39:34.571Z,28.52
2018-09-18T14:42:02.970Z,28.66
2018-09-18T14:44:31.338Z,28.25
2018-09-18T14:46:59.793Z,28.34
2018-09-18T14:49:28.155Z,28.49
2018-09-18T14:51:56.549Z,29.13
2018-09-18T14:54:24.941Z,29.21
2018-09-18T14:56:53.370Z,28.73
2018-09-18T14:59:21.742Z,28.07
2018-09-18T15:01:50.136Z,27.69
2018-09-18T15:04:18.519Z,28.61
2018-09-18T15:06:46.965Z,27.88
2018-09-18T15:09:15.327Z,28.12
2018-09-18T15:11:44.174Z,28.38
2018-09-18T15:14:12.550Z,27.27
2018-09-18T15:16:40.982Z,28.17
2018-09-18T15:19:09.803Z,27.94
2018-09-18T15:21:38.258Z,28.60
2018-09-18T15:24:06.818Z,28.46
2018-09-18T15:26:35.210Z,28.32
2018-09-18T15:29:03.602Z,28.19
2018-09-18T15:31:31.994Z,28.07
2018-09-18T15:34:00.414Z,28.75
2018-09-18T15:36:28.783Z,29.57
2018-09-18T15:38:57.233Z,29.37
2018-09-18T15:41:25.602Z,29.49
2018-09-18T15:43:53.994Z,29.29
2018-09-18T15:46:22.368Z,29.46
2018-09-18T15:48:50.766Z,29.00
2018-09-18T15:51:19.133Z,28.94
2018-09-18T15:53:47.535Z,29.43
2018-09-18T15:56:15.921Z,29.90
2018-09-18T15:58:44.317Z,30.37
2018-09-18T16:01:12.733Z,29.68
2018-09-18T16:03:41.201Z,30.03
2018-09-18T16:06:09.558Z,30.22
2018-09-18T16:08:37.960Z,29.79
2018-09-18T16:11:06.627Z,30.34
2018-09-18T16:13:35.024Z,31.06
2018-09-18T16:16:03.426Z,30.44
2018-09-18T16:18:31.823Z,30.01
2018-09-18T16:21:00.240Z,30.59
2018-09-18T16:23:28.667Z,30.73
2018-09-18T16:25:57.066Z,30.92
2018-09-18T16:28:25.499Z,31.40
2018-09-18T16:30:53.942Z,30.82
2018-09-18T16:33:22.342Z,31.38
2018-09-18T16:35:50.710Z,31.67
2018-09-18T16:38:19.110Z,32.57
2018-09-18T16:40:47.566Z,32.02
2018-09-18T16:43:15.912Z,32.32
2018-09-18T16:45:44.285Z,31.38
2018-09-18T16:48:12.680Z,31.87
2018-09-18T16:50:41.082Z,33.17
2018-09-18T16:53:09.469Z,32.78
2018-09-18T16:55:37.838Z,33.18
2018-09-18T16:58:06.226Z,33.00
2018-09-18T17:00:34.680Z,32.98
2018-09-18T17:03:03.012Z,33.44
2018-09-18T17:05:31.382Z,33.38
2018-09-18T17:07:59.918Z,33.49
2018-09-18T17:10:28.337Z,33.22
2018-09-18T17:12:56.740Z,33.42
2018-09-18T17:15:25.110Z,33.37
2018-09-18T17:17:53.498Z,33.67
2018-09-18T17:20:21.866Z,34.35
2018-09-18T17:22:50.230Z,34.61
2018-09-18T17:25:18.654Z,33.88
2018-09-18T17:27:47.038Z,34.93
2018-09-18T17:30:15.467Z,34.86
2018-09-18T17:32:43.821Z,36.27
2018-09-18T17:35:12.208Z,36.30
2018-09-18T17:37:40.588Z,35.88
2018-09-18T17:40:08.994Z,35.91
2018-09-18T17:42:37.367Z,36.47
2018-09-18T17:45:06.662Z,37.61
2018-09-18T17:47:35.253Z,37.27
2018-09-18T17:50:03.709Z,38.15
2018-09-18T17:52:32.057Z,38.19
2018-09-18T17:55:00.466Z,38.46
2018-09-18T17:57:28.833Z,39.42
2018-09-18T17:59:57.312Z,40.15
2018-09-18T18:02:25.678Z,39.86
2018-09-18T18:04:54.090Z,40.00
2018-09-18T18:07:22.518Z,39.91
2018-09-18T18:09:50.902Z,39.89
2018-09-18T18:12:19.270Z,41.10
2018-09-18T18:14:47.649Z,40.26
2018-09-18T18:17:16.019Z,40.54
2018-09-18T18:19:44.470Z,41.72
2018-09-18T18:22:12.844Z,41.22
2018-09-18T18:24:41.259Z,42.15
2018-09-18T18:27:09.635Z,41.47
2018-09-18T18:29:38.233Z,41.49
2018-09-18T18:32:06.829Z,41.95
2018-09-18T18:34:35.235Z,41.87
2018-09-18T18:37:03.652Z,42.50
2018-09-18T18:39:32.053Z,41.98
2018-09-18T18:42:00.429Z,42.58
2018-09-18T18:44:29.836Z,42.55
2018-09-18T18:46:58.660Z,43.07
2018-09-18T18:49:28.023Z,42.47
2018-09-18T18:51:56.394Z,43.54
2018-09-18T18:54:24.853Z,42.92
2018-09-18T18:56:53.266Z,42.90
2018-09-18T18:59:21.642Z,43.94
2018-09-18T19:01:50.071Z,44.15
2018-09-18T19:04:18.461Z,43.85
2018-09-18T19:06:46.876Z,44.06
2018-09-18T19:09:15.271Z,44.45
2018-09-18T19:11:43.894Z,44.78
2018-09-18T19:14:12.313Z,44.85
2018-09-18T19:16:40.759Z,45.27
2018-09-18T19:19:09.380Z,45.54
2018-09-18T19:21:37.923Z,44.88
2018-09-18T19:24:06.301Z,45.39
2018-09-18T19:26:34.725Z,45.12
2018-09-18T19:29:03.138Z,45.45
2018-09-18T19:31:31.539Z,46.46
2018-09-18T19:34:00.001Z,46.21
2018-09-18T19:36:28.393Z,45.98
2018-09-18T19:38:56.782Z,46.94
2018-09-18T19:41:25.178Z,47.20
2018-09-18T19:43:53.582Z,47.24
2018-09-18T19:46:22.019Z,47.60
2018-09-18T19:48:50.429Z,47.92
2018-09-18T19:51:18.904Z,48.28
2018-09-18T19:53:47.301Z,47.68
2018-09-18T19:56:15.834Z,47.87
2018-09-18T19:58:44.209Z,48.21
2018-09-18T20:01:12.621Z,48.19
2018-09-18T20:03:40.989Z,49.54
2018-09-18T20:06:10.349Z,49.10
2018-09-18T20:08:38.773Z,49.73
2018-09-18T20:11:07.429Z,49.10
2018-09-18T20:13:35.950Z,49.28
2018-09-18T20:16:04.349Z,50.40
2018-09-18T20:18:32.743Z,49.61
2018-09-18T20:21:01.236Z,49.81
2018-09-18T20:23:29.558Z,50.11
2018-09-18T20:25:58.013Z,50.45
2018-09-18T20:28:26.386Z,51.03
2018-09-18T20:30:54.782Z,51.39
2018-09-18T20:33:23.154Z,50.71
2018-09-18T20:35:51.578Z,50.82
2018-09-18T20:38:19.980Z,51.10
2018-09-18T20:40:48.391Z,51.40
2018-09-18T20:43:16.910Z,51.51
2018-09-18T20:45:45.295Z,51.83
2018-09-18T20:48:13.675Z,52.13
2018-09-18T20:50:42.226Z,51.59
2018-09-18T20:53:10.578Z,51.50
2018-09-18T20:55:38.980Z,51.36
2018-09-18T20:58:07.345Z,52.00
2018-09-18T21:00:35.761Z,51.27
2018-09-18T21:03:04.125Z,51.96
2018-09-18T21:05:32.521Z,51.83
2018-09-18T21:08:00.882Z,50.91
2018-09-18T21:10:29.291Z,51.58
2018-09-18T21:12:57.740Z,51.72
2018-09-18T21:15:26.273Z,51.73
2018-09-18T21:17:54.647Z,51.02
2018-09-18T21:20:23.055Z,50.93
2018-09-18T21:22:51.419Z,50.92
2018-09-18T21:25:23.814Z,51.64
2018-09-18T21:27:52.189Z,51.69
2018-09-18T21:30:20.570Z,51.57
2018-09-18T21:32:48.966Z,50.69
2018-09-18T21:35:17.359Z,51.18
2018-09-18T21:37:45.792Z,51.10
2018-09-18T21:40:14.169Z,50.14
2018-09-18T21:42:42.559Z,50.67
2018-09-18T21:45:10.930Z,50.12
2018-09-18T21:47:39.336Z,49.98
2018-09-18T21:50:07.897Z,50.67
2018-09-18T21:52:36.290Z,50.82
2018-09-18T21:55:04.667Z,50.71
2018-09-18T21:57:33.074Z,50.11
2018-09-18T22:00:01.442Z,50.98
2018-09-18T22:02:29.846Z,50.76
2018-09-18T22:04:58.216Z,50.32
2018-09-18T22:07:26.627Z,51.34
2018-09-18T22:09:55.006Z,51.29
2018-09-18T22:12:23.410Z,51.47
2018-09-18T22:14:51.783Z,50.91
2018-09-18T22:17:20.179Z,51.64
2018-09-18T22:19:48.554Z,51.63
2018-09-18T22:22:17.013Z,51.31
2018-09-18T22:24:45.369Z,52.23
2018-09-18T22:27:13.757Z,51.82
2018-09-18T22:29:42.970Z,51.31
2018-09-18T22:32:11.358Z,50.34
2018-09-18T22:34:39.731Z,50.51
2018-09-18T22:37:08.118Z,50.49
2018-09-18T22:39:36.515Z,49.80
2018-09-18T22:42:04.910Z,50.60
2018-09-18T22:44:33.282Z,50.09
2018-09-18T22:47:01.671Z,50.22
2018-09-18T22:49:30.048Z,49.80
2018-09-18T22:51:58.448Z,50.31
2018-09-18T22:54:26.815Z,50.31
2018-09-18T22:56:55.209Z,50.58
2018-09-18T22:59:23.865Z,52.09
2018-09-18T23:01:52.238Z,54.93
2018-09-18T23:04:20.617Z,55.44
2018-09-18T23:06:49.024Z,55.80
2018-09-18T23:09:17.393Z,56.51
2018-09-18T23:11:45.803Z,57.08
2018-09-18T23:14:14.405Z,57.45
2018-09-18T23:16:43.005Z,58.45
2018-09-18T23:19:11.377Z,58.86
2018-09-18T23:21:39.754Z,59.56
2018-09-18T23:24:08.675Z,60.01
2018-09-18T23:26:37.334Z,59.82
2018-09-18T23:29:05.800Z,60.46
2018-09-18T23:31:34.272Z,60.68
2018-09-18T23:34:02.678Z,61.03
2018-09-18T23:36:31.054Z,61.49
2018-09-18T23:38:59.455Z,61.21
2018-09-18T23:41:27.822Z,62.50
2018-09-18T23:43:56.228Z,62.55
2018-09-18T23:46:24.607Z,62.17
2018-09-18T23:48:53.009Z,62.36
2018-09-18T23:51:21.386Z,63.57
2018-09-18T23:53:49.777Z,63.03
2018-09-18T23:56:18.156Z,63.50
2018-09-18T23:58:46.558Z,63.67
